createdAt,value
2018-02-07T00:01:46.190Z,0.00
2018-02-07T00:02:46.190Z,0.00
2018-02-07T00:04:39.584Z,0.00
2018-02-07T00:05:39.560Z,0.00
2018-02-07T00:07:32.937Z,0.00
2018-02-07T00:08:32.938Z,0.00
2018-02-07T00:10:26.332Z,0.00
2018-02-07T00:11:26.313Z,0.00
2018-02-07T00:13:19.706Z,0.00
2018-02-07T00:14:19.692Z,0.00
2018-02-07T00:16:13.060Z,0.00
2018-02-07T00:17:13.060Z,0.00
2018-02-07T00:19:06.453Z,0.00
2018-02-07T00:20:06.434Z,0.00
2018-02-07T00:21:59.808Z,0.00
2018-02-07T00:22:59.806Z,0.00
2018-02-07T00:24:53.221Z,0.00
2018-02-07T00:25:53.181Z,0.00
2018-02-07T00:27:46.563Z,0.00
2018-02-07T00:28:46.565Z,0.00
2018-02-07T00:30:39.978Z,0.00
2018-02-07T00:31:39.930Z,0.00
2018-02-07T00:33:33.323Z,0.00
2018-02-07T00:34:33.304Z,0.00
2018-02-07T00:36:26.683Z,0.00
2018-02-07T00:37:26.722Z,0.00
2018-02-07T00:39:20.076Z,0.00
2018-02-07T00:40:20.055Z,0.00
2018-02-07T00:42:13.449Z,0.00
2018-02-07T00:43:13.429Z,0.00
2018-02-07T00:45:06.832Z,0.00
2018-02-07T00:46:06.825Z,0.00
2018-02-07T00:48:01.177Z,0.00
2018-02-07T00:49:01.178Z,0.00
2018-02-07T00:50:54.576Z,0.00
2018-02-07T00:51:54.573Z,0.00
2018-02-07T00:53:47.968Z,0.00
2018-02-07T00:54:47.937Z,0.00
2018-02-07T00:56:42.329Z,0.00
2018-02-07T00:57:42.314Z,0.00
2018-02-07T00:59:35.719Z,0.00
2018-02-07T01:00:35.698Z,0.00
2018-02-07T01:02:29.078Z,0.00
2018-02-07T01:03:29.070Z,0.00
2018-02-07T01:05:22.471Z,0.00
2018-02-07T01:06:22.447Z,0.00
2018-02-07T01:08:15.840Z,0.00
2018-02-07T01:09:15.833Z,0.00
2018-02-07T01:11:09.234Z,0.00
2018-02-07T01:12:09.236Z,0.00
2018-02-07T01:14:02.623Z,0.00
2018-02-07T01:15:02.589Z,0.00
2018-02-07T01:16:55.965Z,0.00
2018-02-07T01:17:55.965Z,0.00
2018-02-07T01:19:49.359Z,0.00
2018-02-07T01:20:49.341Z,0.00
2018-02-07T01:22:42.730Z,0.00
2018-02-07T01:23:42.714Z,0.00
2018-02-07T01:25:36.115Z,0.00
2018-02-07T01:26:36.096Z,0.00
2018-02-07T01:28:29.475Z,0.00
2018-02-07T01:29:29.470Z,0.00
2018-02-07T01:31:22.867Z,0.00
2018-02-07T01:32:22.873Z,0.00
2018-02-07T01:34:16.284Z,0.00
2018-02-07T01:35:16.220Z,0.00
2018-02-07T01:37:09.603Z,0.00
2018-02-07T01:38:09.594Z,0.00
2018-02-07T01:40:03.005Z,0.00
2018-02-07T01:41:02.972Z,0.00
2018-02-07T01:42:56.358Z,0.00
2018-02-07T01:43:56.358Z,0.00
2018-02-07T01:45:49.747Z,0.00
2018-02-07T01:46:49.739Z,0.00
2018-02-07T01:48:43.101Z,0.00
2018-02-07T01:49:43.100Z,0.00
2018-02-07T01:51:36.495Z,0.00
2018-02-07T01:52:36.477Z,0.00
2018-02-07T01:54:29.871Z,0.00
2018-02-07T01:55:29.866Z,0.00
2018-02-07T01:57:23.259Z,0.00
2018-02-07T01:58:23.240Z,0.00
2018-02-07T02:00:16.631Z,0.00
2018-02-07T02:01:16.611Z,0.00
2018-02-07T02:03:09.988Z,0.00
2018-02-07T02:04:10.000Z,0.00
2018-02-07T02:06:03.392Z,0.00
2018-02-07T02:07:03.361Z,0.00
2018-02-07T02:08:56.762Z,0.00
2018-02-07T02:09:56.751Z,0.00
2018-02-07T02:11:50.152Z,0.00
2018-02-07T02:12:50.131Z,0.00
2018-02-07T02:14:43.513Z,0.00
2018-02-07T02:15:43.508Z,0.00
2018-02-07T02:17:36.964Z,0.00
2018-02-07T02:18:36.887Z,0.00
2018-02-07T02:20:30.295Z,0.00
2018-02-07T02:21:30.268Z,0.00
2018-02-07T02:23:23.643Z,0.00
2018-02-07T02:24:23.645Z,0.00
2018-02-07T02:26:17.044Z,0.00
2018-02-07T02:27:17.030Z,0.00
2018-02-07T02:29:10.401Z,0.00
2018-02-07T02:30:10.397Z,0.00
2018-02-07T02:32:03.816Z,0.00
2018-02-07T02:33:03.768Z,0.00
2018-02-07T02:34:57.147Z,0.00
2018-02-07T02:35:57.148Z,0.00
2018-02-07T02:37:50.541Z,0.00
2018-02-07T02:38:50.523Z,0.00
2018-02-07T02:40:43.921Z,0.00
2018-02-07T02:41:43.901Z,0.00
2018-02-07T02:43:37.280Z,0.00
2018-02-07T02:44:37.276Z,0.00
2018-02-07T02:46:30.672Z,0.00
2018-02-07T02:47:30.654Z,0.00
2018-02-07T02:49:24.029Z,0.00
2018-02-07T02:50:24.028Z,0.00
2018-02-07T02:52:17.421Z,0.00
2018-02-07T02:53:17.402Z,0.00
2018-02-07T02:55:10.790Z,0.00
2018-02-07T02:56:10.790Z,0.00
2018-02-07T02:58:04.194Z,0.00
2018-02-07T02:59:04.182Z,0.00
2018-02-07T03:00:57.573Z,0.00
2018-02-07T03:01:57.551Z,0.00
2018-02-07T03:03:50.927Z,0.00
2018-02-07T03:04:50.931Z,0.00
2018-02-07T03:06:44.320Z,0.00
2018-02-07T03:07:44.301Z,0.00
2018-02-07T03:09:37.677Z,0.00
2018-02-07T03:10:37.676Z,0.00
2018-02-07T03:12:31.077Z,0.00
2018-02-07T03:13:31.051Z,0.00
2018-02-07T03:15:24.451Z,0.00
2018-02-07T03:16:24.438Z,0.00
2018-02-07T03:18:17.841Z,0.00
2018-02-07T03:19:17.831Z,0.00
2018-02-07T03:21:11.228Z,0.00
2018-02-07T03:22:11.194Z,0.00
2018-02-07T03:24:04.579Z,0.00
2018-02-07T03:25:04.568Z,0.00
2018-02-07T03:26:57.965Z,0.00
2018-02-07T03:27:57.944Z,0.00
2018-02-07T03:29:51.330Z,0.00
2018-02-07T03:30:51.320Z,0.00
2018-02-07T03:32:44.714Z,0.00
2018-02-07T03:33:44.694Z,0.00
2018-02-07T03:35:38.074Z,0.00
2018-02-07T03:36:38.071Z,0.00
2018-02-07T03:38:31.467Z,0.00
2018-02-07T03:39:31.447Z,0.00
2018-02-07T03:41:24.848Z,0.00
2018-02-07T03:42:24.823Z,0.00
2018-02-07T03:44:18.219Z,0.00
2018-02-07T03:45:18.201Z,0.00
2018-02-07T03:47:11.622Z,0.00
2018-02-07T03:48:11.574Z,0.00
2018-02-07T03:50:04.956Z,0.00
2018-02-07T03:51:04.948Z,0.00
2018-02-07T03:52:58.344Z,0.00
2018-02-07T03:53:58.324Z,0.00
2018-02-07T03:55:51.701Z,0.00
2018-02-07T03:56:51.699Z,0.00
2018-02-07T03:58:45.097Z,0.00
2018-02-07T03:59:45.073Z,0.00
2018-02-07T04:01:38.450Z,0.00
2018-02-07T04:02:38.452Z,0.00
2018-02-07T04:04:31.855Z,0.00
2018-02-07T04:05:31.824Z,0.00
2018-02-07T04:07:25.246Z,0.00
2018-02-07T04:08:25.211Z,0.00
2018-02-07T04:10:19.584Z,0.00
2018-02-07T04:11:19.584Z,0.00
2018-02-07T04:13:12.981Z,0.00
2018-02-07T04:14:12.964Z,0.00
2018-02-07T04:16:06.337Z,0.00
2018-02-07T04:17:06.334Z,0.00
2018-02-07T04:18:59.743Z,0.00
2018-02-07T04:19:59.735Z,0.00
2018-02-07T04:21:53.100Z,0.00
2018-02-07T04:22:53.099Z,0.00
2018-02-07T04:24:46.502Z,0.00
2018-02-07T04:25:46.474Z,0.00
2018-02-07T04:27:39.882Z,0.00
2018-02-07T04:28:39.857Z,0.00
2018-02-07T04:30:33.238Z,0.00
2018-02-07T04:31:33.235Z,0.00
2018-02-07T04:33:26.634Z,0.00
2018-02-07T04:34:26.615Z,0.00
2018-02-07T04:36:19.992Z,0.00
2018-02-07T04:37:19.991Z,0.00
2018-02-07T04:39:13.392Z,0.00
2018-02-07T04:40:13.376Z,0.00
2018-02-07T04:42:06.747Z,0.00
2018-02-07T04:43:06.742Z,0.00
2018-02-07T04:45:00.138Z,0.00
2018-02-07T04:46:00.117Z,0.00
2018-02-07T04:47:53.514Z,0.00
2018-02-07T04:48:53.499Z,0.00
2018-02-07T04:50:46.874Z,0.00
2018-02-07T04:51:46.871Z,0.00
2018-02-07T04:53:40.292Z,0.00
2018-02-07T04:54:40.271Z,0.00
2018-02-07T04:56:33.650Z,0.00
2018-02-07T04:57:33.649Z,0.00
2018-02-07T04:59:27.057Z,0.00
2018-02-07T05:00:27.028Z,0.00
2018-02-07T05:02:20.409Z,0.00
2018-02-07T05:03:20.410Z,0.00
2018-02-07T05:05:13.825Z,0.00
2018-02-07T05:06:13.792Z,0.00
2018-02-07T05:08:07.209Z,0.00
2018-02-07T05:09:07.175Z,0.00
2018-02-07T05:11:00.560Z,0.00
2018-02-07T05:12:00.561Z,0.00
2018-02-07T05:13:54.987Z,0.00
2018-02-07T05:14:54.978Z,0.00
2018-02-07T05:16:48.320Z,0.00
2018-02-07T05:17:48.312Z,0.00
2018-02-07T05:19:41.708Z,0.00
2018-02-07T05:20:41.696Z,0.00
2018-02-07T05:22:35.092Z,0.00
2018-02-07T05:23:35.071Z,0.00
2018-02-07T05:25:28.471Z,0.00
2018-02-07T05:26:28.467Z,0.00
2018-02-07T05:28:21.842Z,0.00
2018-02-07T05:29:21.863Z,0.00
2018-02-07T05:31:15.296Z,0.00
2018-02-07T05:32:15.272Z,0.00
2018-02-07T05:34:08.686Z,0.00
2018-02-07T05:35:08.648Z,0.00
2018-02-07T05:37:02.024Z,0.00
2018-02-07T05:38:02.024Z,0.00
2018-02-07T05:39:55.431Z,0.00
2018-02-07T05:40:55.415Z,0.00
2018-02-07T05:42:48.780Z,0.00
2018-02-07T05:43:48.803Z,0.00
2018-02-07T05:45:42.192Z,0.00
2018-02-07T05:46:42.175Z,0.00
2018-02-07T05:48:36.556Z,0.00
2018-02-07T05:49:36.553Z,0.00
2018-02-07T05:51:29.946Z,0.00
2018-02-07T05:52:29.925Z,0.00
2018-02-07T05:54:23.360Z,0.00
2018-02-07T05:55:23.315Z,0.00
2018-02-07T05:57:16.726Z,0.00
2018-02-07T05:58:16.713Z,0.00
2018-02-07T06:00:10.083Z,0.00
2018-02-07T06:01:10.064Z,0.00
2018-02-07T06:03:03.455Z,0.00
2018-02-07T06:04:03.453Z,0.00
2018-02-07T06:05:56.844Z,0.00
2018-02-07T06:06:56.831Z,0.00
2018-02-07T06:08:50.279Z,0.00
2018-02-07T06:09:50.273Z,0.00
2018-02-07T06:11:43.769Z,0.00
2018-02-07T06:12:43.648Z,0.00
2018-02-07T06:14:37.048Z,0.00
2018-02-07T06:15:37.049Z,0.00
2018-02-07T06:17:30.445Z,0.00
2018-02-07T06:18:30.407Z,0.00
2018-02-07T06:20:23.816Z,0.00
2018-02-07T06:21:23.807Z,0.00
2018-02-07T06:23:17.201Z,0.00
2018-02-07T06:24:17.168Z,0.00
2018-02-07T06:26:10.568Z,0.00
2018-02-07T06:27:10.562Z,0.00
2018-02-07T06:29:03.973Z,0.00
2018-02-07T06:30:03.935Z,0.00
2018-02-07T06:31:57.343Z,0.00
2018-02-07T06:32:57.320Z,0.00
2018-02-07T06:34:50.755Z,0.00
2018-02-07T06:35:50.731Z,0.00
2018-02-07T06:37:44.084Z,0.00
2018-02-07T06:38:44.097Z,0.00
2018-02-07T06:40:37.501Z,0.00
2018-02-07T06:41:37.458Z,0.00
2018-02-07T06:43:30.856Z,0.00
2018-02-07T06:44:30.837Z,0.00
2018-02-07T06:46:24.239Z,0.00
2018-02-07T06:47:24.227Z,5.63
2018-02-07T06:49:17.601Z,5.63
2018-02-07T06:50:17.636Z,5.63
2018-02-07T06:52:11.002Z,5.63
2018-02-07T06:53:11.000Z,5.63
2018-02-07T06:55:04.473Z,5.63
2018-02-07T06:56:04.366Z,5.63
2018-02-07T06:57:57.797Z,5.63
2018-02-07T06:58:57.740Z,11.25
2018-02-07T07:00:51.154Z,11.25
2018-02-07T07:01:51.121Z,11.25
2018-02-07T07:03:44.503Z,11.25
2018-02-07T07:04:44.517Z,11.25
2018-02-07T07:06:37.921Z,16.88
2018-02-07T07:07:37.890Z,16.88
2018-02-07T07:09:31.273Z,16.88
2018-02-07T07:10:31.270Z,16.88
2018-02-07T07:12:25.689Z,16.88
2018-02-07T07:13:25.671Z,22.50
2018-02-07T07:15:19.038Z,22.50
2018-02-07T07:16:19.032Z,22.50
2018-02-07T07:18:12.421Z,22.50
2018-02-07T07:19:12.429Z,22.50
2018-02-07T07:21:05.822Z,22.50
2018-02-07T07:22:05.788Z,28.13
2018-02-07T07:23:59.180Z,28.13
2018-02-07T07:24:59.197Z,28.13
2018-02-07T07:26:53.570Z,28.13
2018-02-07T07:27:53.558Z,28.13
2018-02-07T07:29:46.931Z,28.13
2018-02-07T07:30:46.927Z,28.13
2018-02-07T07:32:40.343Z,28.13
2018-02-07T07:33:40.318Z,28.13
2018-02-07T07:35:33.688Z,28.13
2018-02-07T07:36:33.699Z,28.13
2018-02-07T07:38:27.088Z,28.13
2018-02-07T07:39:27.102Z,28.13
2018-02-07T07:41:21.506Z,28.13
2018-02-07T07:42:21.442Z,28.13
2018-02-07T07:44:14.843Z,28.13
2018-02-07T07:45:14.826Z,28.13
2018-02-07T07:47:08.294Z,33.75
2018-02-07T07:48:08.308Z,33.75
2018-02-07T07:50:01.681Z,28.13
2018-02-07T07:51:01.669Z,33.75
2018-02-07T07:52:55.065Z,33.75
2018-02-07T07:53:55.062Z,33.75
2018-02-07T07:55:48.418Z,33.75
2018-02-07T07:56:48.440Z,33.75
2018-02-07T07:58:42.806Z,39.38
2018-02-07T07:59:42.787Z,39.38
2018-02-07T08:01:36.188Z,39.38
2018-02-07T08:02:36.210Z,39.38
2018-02-07T08:04:29.550Z,39.38
2018-02-07T08:05:29.548Z,39.38
2018-02-07T08:07:22.943Z,39.38
2018-02-07T08:08:22.930Z,45.00
2018-02-07T08:10:16.303Z,45.00
2018-02-07T08:11:16.302Z,45.00
2018-02-07T08:13:09.699Z,50.63
2018-02-07T08:14:09.678Z,50.63
2018-02-07T08:16:03.060Z,50.63
2018-02-07T08:17:03.056Z,56.25
2018-02-07T08:18:56.484Z,56.25
2018-02-07T08:19:56.433Z,56.25
2018-02-07T08:21:49.834Z,61.88
2018-02-07T08:22:49.809Z,61.88
2018-02-07T08:24:43.191Z,67.50
2018-02-07T08:25:43.193Z,67.50
2018-02-07T08:27:36.601Z,67.50
2018-02-07T08:28:36.609Z,67.50
2018-02-07T08:30:30.957Z,67.50
2018-02-07T08:31:30.955Z,73.13
2018-02-07T08:33:24.354Z,84.38
2018-02-07T08:34:24.334Z,90.00
2018-02-07T08:36:17.715Z,95.63
2018-02-07T08:37:17.713Z,95.63
2018-02-07T08:39:11.131Z,95.63
2018-02-07T08:40:11.090Z,101.25
2018-02-07T08:42:04.485Z,106.88
2018-02-07T08:43:04.472Z,106.88
2018-02-07T08:44:57.846Z,101.25
2018-02-07T08:45:57.845Z,101.25
2018-02-07T08:47:51.245Z,106.88
2018-02-07T08:48:51.225Z,106.88
2018-02-07T08:50:44.602Z,101.25
2018-02-07T08:51:44.599Z,101.25
2018-02-07T08:53:38.000Z,95.63
2018-02-07T08:54:37.980Z,95.63
2018-02-07T08:56:31.361Z,95.63
2018-02-07T08:57:31.356Z,95.63
2018-02-07T08:59:25.783Z,95.63
2018-02-07T09:00:25.730Z,95.63
2018-02-07T09:02:19.128Z,90.00
2018-02-07T09:03:19.141Z,90.00
2018-02-07T09:05:12.508Z,95.63
2018-02-07T09:06:12.503Z,95.63
2018-02-07T09:08:05.887Z,90.00
2018-02-07T09:09:05.868Z,84.38
2018-02-07T09:10:59.290Z,84.38
2018-02-07T09:11:59.250Z,84.38
2018-02-07T09:13:53.649Z,84.38
2018-02-07T09:14:53.630Z,78.75
2018-02-07T09:16:47.007Z,84.38
2018-02-07T09:17:47.007Z,84.38
2018-02-07T09:19:40.405Z,84.38
2018-02-07T09:20:40.385Z,84.38
2018-02-07T09:22:33.763Z,90.00
2018-02-07T09:23:33.763Z,90.00
2018-02-07T09:25:27.185Z,90.00
2018-02-07T09:26:27.141Z,90.00
2018-02-07T09:28:20.543Z,90.00
2018-02-07T09:29:20.525Z,84.38
2018-02-07T09:31:13.410Z,84.38
2018-02-07T09:32:13.406Z,84.38
2018-02-07T09:34:06.806Z,84.38
2018-02-07T09:35:06.785Z,84.38
2018-02-07T09:37:00.161Z,84.38
2018-02-07T09:38:00.164Z,84.38
2018-02-07T09:39:53.066Z,73.13
2018-02-07T09:40:53.050Z,73.13
2018-02-07T09:42:45.930Z,73.13
2018-02-07T09:43:45.928Z,73.13
2018-02-07T09:45:39.324Z,73.13
2018-02-07T09:46:39.306Z,73.13
2018-02-07T09:48:32.702Z,73.13
2018-02-07T09:49:32.682Z,73.13
2018-02-07T09:51:25.567Z,73.13
2018-02-07T09:52:25.564Z,78.75
2018-02-07T09:54:18.963Z,78.75
2018-02-07T09:55:18.945Z,73.13
2018-02-07T09:57:12.330Z,78.75
2018-02-07T09:58:12.320Z,73.13
2018-02-07T10:00:05.729Z,73.13
2018-02-07T10:01:05.707Z,78.75
2018-02-07T10:02:59.084Z,78.75
2018-02-07T10:03:59.082Z,78.75
2018-02-07T10:05:52.527Z,84.38
2018-02-07T10:06:52.465Z,84.38
2018-02-07T10:08:45.856Z,90.00
2018-02-07T10:09:45.837Z,90.00
2018-02-07T10:11:39.270Z,95.63
2018-02-07T10:12:39.314Z,101.25
2018-02-07T10:14:32.668Z,106.88
2018-02-07T10:15:32.659Z,112.50
2018-02-07T10:17:26.037Z,118.13
2018-02-07T10:18:26.025Z,118.13
2018-02-07T10:20:19.428Z,112.50
2018-02-07T10:21:19.408Z,112.50
2018-02-07T10:23:12.789Z,101.25
2018-02-07T10:24:12.789Z,101.25
2018-02-07T10:26:06.186Z,95.63
2018-02-07T10:27:06.166Z,95.63
2018-02-07T10:28:59.569Z,101.25
2018-02-07T10:29:59.548Z,106.88
2018-02-07T10:31:52.929Z,112.50
2018-02-07T10:32:52.925Z,118.13
2018-02-07T10:34:46.327Z,123.75
2018-02-07T10:35:46.305Z,123.75
2018-02-07T10:37:39.685Z,123.75
2018-02-07T10:38:39.687Z,129.38
2018-02-07T10:40:33.087Z,129.38
2018-02-07T10:41:33.075Z,129.38
2018-02-07T10:43:26.460Z,129.38
2018-02-07T10:44:26.451Z,123.75
2018-02-07T10:46:19.856Z,118.13
2018-02-07T10:47:19.842Z,112.50
2018-02-07T10:49:13.265Z,101.25
2018-02-07T10:50:13.269Z,101.25
2018-02-07T10:52:06.665Z,95.63
2018-02-07T10:53:06.648Z,90.00
2018-02-07T10:55:00.047Z,95.63
2018-02-07T10:56:00.028Z,101.25
2018-02-07T10:57:53.413Z,106.88
2018-02-07T10:58:53.414Z,112.50
2018-02-07T11:00:46.819Z,118.13
2018-02-07T11:01:46.796Z,118.13
2018-02-07T11:03:40.176Z,112.50
2018-02-07T11:04:40.175Z,118.13
2018-02-07T11:06:33.570Z,123.75
2018-02-07T11:07:33.550Z,129.38
2018-02-07T11:09:26.931Z,129.38
2018-02-07T11:10:26.930Z,118.13
2018-02-07T11:12:19.835Z,112.50
2018-02-07T11:13:19.815Z,106.88
2018-02-07T11:15:13.289Z,106.88
2018-02-07T11:16:13.268Z,106.88
2018-02-07T11:18:06.657Z,106.88
2018-02-07T11:19:06.659Z,106.88
2018-02-07T11:21:00.056Z,106.88
2018-02-07T11:22:00.037Z,106.88
2018-02-07T11:23:53.416Z,106.88
2018-02-07T11:24:53.413Z,106.88
2018-02-07T11:26:46.811Z,106.88
2018-02-07T11:27:46.790Z,112.50
2018-02-07T11:29:40.171Z,106.88
2018-02-07T11:30:40.171Z,101.25
2018-02-07T11:32:33.570Z,95.63
2018-02-07T11:33:33.551Z,90.00
2018-02-07T11:35:26.946Z,90.00
2018-02-07T11:36:26.928Z,84.38
2018-02-07T11:38:20.320Z,90.00
2018-02-07T11:39:20.316Z,90.00
2018-02-07T11:41:13.713Z,90.00
2018-02-07T11:42:13.696Z,90.00
2018-02-07T11:44:07.074Z,90.00
2018-02-07T11:45:07.079Z,90.00
2018-02-07T11:47:00.472Z,84.38
2018-02-07T11:48:00.452Z,84.38
2018-02-07T11:49:53.836Z,84.38
2018-02-07T11:50:53.833Z,78.75
2018-02-07T11:52:47.229Z,78.75
2018-02-07T11:53:47.209Z,78.75
2018-02-07T11:55:40.646Z,90.00
2018-02-07T11:56:40.592Z,90.00
2018-02-07T11:58:33.965Z,84.38
2018-02-07T11:59:33.966Z,84.38
2018-02-07T12:01:27.366Z,90.00
2018-02-07T12:02:27.346Z,90.00
2018-02-07T12:04:20.737Z,95.63
2018-02-07T12:05:20.736Z,95.63
2018-02-07T12:07:14.372Z,95.63
2018-02-07T12:08:14.882Z,95.63
2018-02-07T12:10:07.921Z,90.00
2018-02-07T12:11:07.536Z,84.38
2018-02-07T12:13:00.929Z,78.75
2018-02-07T12:14:00.911Z,78.75
2018-02-07T12:15:54.288Z,73.13
2018-02-07T12:16:54.288Z,73.13
2018-02-07T12:18:47.685Z,73.13
2018-02-07T12:19:47.668Z,73.13
2018-02-07T12:21:41.048Z,73.13
2018-02-07T12:22:41.046Z,73.13
2018-02-07T12:24:34.443Z,73.13
2018-02-07T12:25:34.426Z,73.13
2018-02-07T12:27:27.803Z,73.13
2018-02-07T12:28:27.802Z,73.13
2018-02-07T12:30:21.201Z,78.75
2018-02-07T12:31:21.181Z,78.75
2018-02-07T12:33:14.617Z,78.75
2018-02-07T12:34:14.559Z,84.38
2018-02-07T12:36:07.977Z,90.00
2018-02-07T12:37:07.936Z,90.00
2018-02-07T12:39:01.335Z,90.00
2018-02-07T12:40:01.318Z,95.63
2018-02-07T12:41:54.697Z,90.00
2018-02-07T12:42:54.694Z,84.38
2018-02-07T12:44:48.091Z,78.75
2018-02-07T12:45:48.075Z,78.75
2018-02-07T12:47:41.448Z,78.75
2018-02-07T12:48:41.449Z,73.13
2018-02-07T12:50:34.849Z,78.75
2018-02-07T12:51:34.831Z,78.75
2018-02-07T12:53:28.204Z,73.13
2018-02-07T12:54:28.207Z,73.13
2018-02-07T12:56:21.602Z,73.13
2018-02-07T12:57:21.585Z,73.13
2018-02-07T12:59:14.980Z,73.13
2018-02-07T13:00:14.962Z,73.13
2018-02-07T13:02:08.349Z,73.13
2018-02-07T13:03:08.352Z,73.13
2018-02-07T13:05:01.750Z,78.75
2018-02-07T13:06:01.736Z,78.75
2018-02-07T13:07:55.111Z,78.75
2018-02-07T13:08:55.112Z,84.38
2018-02-07T13:10:48.507Z,90.00
2018-02-07T13:11:48.494Z,90.00
2018-02-07T13:13:41.866Z,90.00
2018-02-07T13:14:41.865Z,90.00
2018-02-07T13:16:35.287Z,90.00
2018-02-07T13:17:35.265Z,90.00
2018-02-07T13:19:28.642Z,90.00
2018-02-07T13:20:28.642Z,95.63
2018-02-07T13:22:22.040Z,101.25
2018-02-07T13:23:22.020Z,101.25
2018-02-07T13:25:15.397Z,106.88
2018-02-07T13:26:15.446Z,106.88
2018-02-07T13:28:08.794Z,106.88
2018-02-07T13:29:08.775Z,106.88
2018-02-07T13:31:02.153Z,106.88
2018-02-07T13:32:02.154Z,106.88
2018-02-07T13:33:55.554Z,106.88
2018-02-07T13:34:55.535Z,106.88
2018-02-07T13:36:48.939Z,106.88
2018-02-07T13:37:48.919Z,106.88
2018-02-07T13:39:42.311Z,106.88
2018-02-07T13:40:42.313Z,106.88
2018-02-07T13:42:35.706Z,112.50
2018-02-07T13:43:35.688Z,112.50
2018-02-07T13:45:29.067Z,118.13
2018-02-07T13:46:29.067Z,118.13
2018-02-07T13:48:23.501Z,112.50
2018-02-07T13:49:23.483Z,118.13
2018-02-07T13:51:17.877Z,129.38
2018-02-07T13:52:17.821Z,129.38
2018-02-07T13:54:11.218Z,129.38
2018-02-07T13:55:11.200Z,129.38
2018-02-07T13:57:04.083Z,123.75
2018-02-07T13:58:04.081Z,123.75
2018-02-07T13:59:57.529Z,123.75
2018-02-07T14:00:57.464Z,123.75
2018-02-07T14:02:50.838Z,118.13
2018-02-07T14:03:50.839Z,118.13
2018-02-07T14:05:44.284Z,118.13
2018-02-07T14:06:44.263Z,112.50
2018-02-07T14:08:37.639Z,101.25
2018-02-07T14:09:37.642Z,95.63
2018-02-07T14:11:31.041Z,84.38
2018-02-07T14:12:31.020Z,84.38
2018-02-07T14:14:24.435Z,84.38
2018-02-07T14:15:24.399Z,78.75
2018-02-07T14:17:17.777Z,78.75
2018-02-07T14:18:17.775Z,78.75
2018-02-07T14:20:11.176Z,78.75
2018-02-07T14:21:11.159Z,78.75
2018-02-07T14:23:04.536Z,73.13
2018-02-07T14:24:04.537Z,73.13
2018-02-07T14:25:57.936Z,73.13
2018-02-07T14:26:57.927Z,73.13
2018-02-07T14:28:51.298Z,61.88
2018-02-07T14:29:51.303Z,61.88
2018-02-07T14:31:44.696Z,56.25
2018-02-07T14:32:44.676Z,56.25
2018-02-07T14:34:38.078Z,56.25
2018-02-07T14:35:38.060Z,56.25
2018-02-07T14:37:31.455Z,56.25
2018-02-07T14:38:31.440Z,56.25
2018-02-07T14:40:24.844Z,50.63
2018-02-07T14:41:24.843Z,50.63
2018-02-07T14:43:18.263Z,50.63
2018-02-07T14:44:18.196Z,50.63
2018-02-07T14:46:11.575Z,50.63
2018-02-07T14:47:11.577Z,45.00
2018-02-07T14:49:04.984Z,45.00
2018-02-07T14:50:04.998Z,45.00
2018-02-07T14:51:58.355Z,50.63
2018-02-07T14:52:58.342Z,50.63
2018-02-07T14:54:51.753Z,50.63
2018-02-07T14:55:51.722Z,50.63
2018-02-07T14:57:45.214Z,50.63
2018-02-07T14:58:45.138Z,50.63
2018-02-07T15:00:38.515Z,50.63
2018-02-07T15:01:38.479Z,50.63
2018-02-07T15:03:31.895Z,45.00
2018-02-07T15:04:31.864Z,50.63
2018-02-07T15:06:25.268Z,50.63
2018-02-07T15:07:25.265Z,50.63
2018-02-07T15:09:19.622Z,50.63
2018-02-07T15:10:19.635Z,50.63
2018-02-07T15:12:13.017Z,56.25
2018-02-07T15:13:13.007Z,61.88
2018-02-07T15:15:06.430Z,67.50
2018-02-07T15:16:06.384Z,67.50
2018-02-07T15:17:59.790Z,61.88
2018-02-07T15:18:59.763Z,61.88
2018-02-07T15:20:54.146Z,61.88
2018-02-07T15:21:54.171Z,61.88
2018-02-07T15:23:47.565Z,61.88
2018-02-07T15:24:47.556Z,61.88
2018-02-07T15:26:40.977Z,56.25
2018-02-07T15:27:40.922Z,56.25
2018-02-07T15:29:34.301Z,56.25
2018-02-07T15:30:34.306Z,56.25
2018-02-07T15:32:27.687Z,45.00
2018-02-07T15:33:27.668Z,45.00
2018-02-07T15:35:21.104Z,39.38
2018-02-07T15:36:21.046Z,39.38
2018-02-07T15:38:14.469Z,33.75
2018-02-07T15:39:14.440Z,33.75
2018-02-07T15:41:07.836Z,33.75
2018-02-07T15:42:07.825Z,33.75
2018-02-07T15:44:01.258Z,33.75
2018-02-07T15:45:01.209Z,33.75
2018-02-07T15:46:54.596Z,33.75
2018-02-07T15:47:54.596Z,33.75
2018-02-07T15:49:47.997Z,28.13
2018-02-07T15:50:47.977Z,22.50
2018-02-07T15:52:41.375Z,22.50
2018-02-07T15:53:41.368Z,22.50
2018-02-07T15:55:34.771Z,16.88
2018-02-07T15:56:34.752Z,16.88
2018-02-07T15:58:28.125Z,11.25
2018-02-07T15:59:28.120Z,11.25
2018-02-07T16:01:21.524Z,11.25
2018-02-07T16:02:21.503Z,11.25
2018-02-07T16:04:14.949Z,5.63
2018-02-07T16:05:14.897Z,5.63
2018-02-07T16:07:09.319Z,5.63
2018-02-07T16:08:09.279Z,5.63
2018-02-07T16:10:02.653Z,5.63
2018-02-07T16:11:02.654Z,5.63
2018-02-07T16:12:56.080Z,5.63
2018-02-07T16:13:56.051Z,5.63
2018-02-07T16:15:50.442Z,0.00
2018-02-07T16:16:50.408Z,0.00
2018-02-07T16:18:43.913Z,0.00
2018-02-07T16:19:43.799Z,0.00
2018-02-07T16:21:37.206Z,0.00
2018-02-07T16:22:37.203Z,0.00
2018-02-07T16:24:30.618Z,0.00
2018-02-07T16:25:30.555Z,0.00
2018-02-07T16:27:23.940Z,0.00
2018-02-07T16:28:23.942Z,0.00
2018-02-07T16:30:17.310Z,0.00
2018-02-07T16:31:17.327Z,0.00
2018-02-07T16:33:10.721Z,0.00
2018-02-07T16:34:10.739Z,0.00
2018-02-07T16:36:04.071Z,0.00
2018-02-07T16:37:04.086Z,0.00
2018-02-07T16:38:57.532Z,0.00
2018-02-07T16:39:57.502Z,0.00
2018-02-07T16:41:51.893Z,0.00
2018-02-07T16:42:51.961Z,0.00
2018-02-07T16:44:45.266Z,0.00
2018-02-07T16:45:45.289Z,0.00
2018-02-07T16:47:38.657Z,0.00
2018-02-07T16:48:38.619Z,0.00
2018-02-07T16:50:32.055Z,0.00
2018-02-07T16:51:32.014Z,0.00
2018-02-07T16:53:25.360Z,0.00
2018-02-07T16:54:25.402Z,0.00
2018-02-07T16:56:18.954Z,0.00
2018-02-07T16:57:27.578Z,0.00
2018-02-07T16:59:22.089Z,0.00
2018-02-07T17:00:13.442Z,0.00
2018-02-07T17:02:06.538Z,0.00
2018-02-07T17:03:06.505Z,0.00
2018-02-07T17:05:00.959Z,0.00
2018-02-07T17:06:00.889Z,0.00
2018-02-07T17:07:54.319Z,0.00
2018-02-07T17:08:54.339Z,0.00
2018-02-07T17:10:47.721Z,0.00
2018-02-07T17:11:47.683Z,0.00
2018-02-07T17:13:41.100Z,0.00
2018-02-07T17:14:41.086Z,0.00
2018-02-07T17:16:34.449Z,0.00
2018-02-07T17:17:34.470Z,0.00
2018-02-07T17:19:27.854Z,0.00
2018-02-07T17:20:27.854Z,0.00
2018-02-07T17:22:21.264Z,0.00
2018-02-07T17:23:21.250Z,0.00
2018-02-07T17:25:14.679Z,0.00
2018-02-07T17:26:14.662Z,0.00
2018-02-07T17:28:08.034Z,0.00
2018-02-07T17:29:08.037Z,0.00
2018-02-07T17:31:01.441Z,0.00
2018-02-07T17:32:01.427Z,0.00
2018-02-07T17:33:55.863Z,0.00
2018-02-07T17:34:55.812Z,0.00
2018-02-07T17:36:49.183Z,0.00
2018-02-07T17:37:49.198Z,0.00
2018-02-07T17:39:42.568Z,0.00
2018-02-07T17:40:42.561Z,0.00
2018-02-07T17:42:36.015Z,0.00
2018-02-07T17:43:35.960Z,0.00
2018-02-07T17:45:29.372Z,0.00
2018-02-07T17:46:29.333Z,0.00
2018-02-07T17:48:22.744Z,0.00
2018-02-07T17:49:22.740Z,0.00
2018-02-07T17:51:16.092Z,0.00
2018-02-07T17:52:16.121Z,0.00
2018-02-07T17:54:09.527Z,0.00
2018-02-07T17:55:09.454Z,0.00
2018-02-07T17:57:03.912Z,0.00
2018-02-07T17:58:03.927Z,0.00
2018-02-07T17:59:57.322Z,0.00
2018-02-07T18:00:57.266Z,0.00
2018-02-07T18:02:50.741Z,0.00
2018-02-07T18:03:50.705Z,0.00
2018-02-07T18:05:44.092Z,0.00
2018-02-07T18:06:43.988Z,0.00
2018-02-07T18:08:37.407Z,0.00
2018-02-07T18:09:37.415Z,0.00
2018-02-07T18:11:30.826Z,0.00
2018-02-07T18:12:30.908Z,0.00
2018-02-07T18:14:24.197Z,0.00
2018-02-07T18:15:24.227Z,0.00
2018-02-07T18:17:17.660Z,0.00
2018-02-07T18:18:17.527Z,0.00
2018-02-07T18:20:10.906Z,0.00
2018-02-07T18:21:10.934Z,0.00
2018-02-07T18:23:04.367Z,0.00
2018-02-07T18:24:04.325Z,0.00
2018-02-07T18:25:58.712Z,0.00
2018-02-07T18:26:58.745Z,0.00
2018-02-07T18:28:52.136Z,0.00
2018-02-07T18:29:52.117Z,0.00
2018-02-07T18:31:45.522Z,0.00
2018-02-07T18:32:45.514Z,0.00
2018-02-07T18:34:38.906Z,0.00
2018-02-07T18:35:38.931Z,0.00
2018-02-07T18:37:32.369Z,0.00
2018-02-07T18:38:32.345Z,0.00
2018-02-07T18:40:25.662Z,0.00
2018-02-07T18:41:25.647Z,0.00
2018-02-07T18:43:19.043Z,0.00
2018-02-07T18:44:19.036Z,0.00
2018-02-07T18:46:12.406Z,0.00
2018-02-07T18:47:12.406Z,0.00
2018-02-07T18:49:05.860Z,0.00
2018-02-07T18:50:05.855Z,0.00
2018-02-07T18:51:59.227Z,0.00